Flight Track Log - Related Links

Times and Time Zones

All times are in EDT time to prevent confusion due to time zone crossing. See the SKW5305 flight status page for this flight to view local times or setup timezone preferences in your user account.

Time Position Orientation Groundspeed Altitude Reporting Facility
EDT Latitude Longitude Course Direction KTS MPH feet Rate Location/Type
Fri 08:39:51 PM 47.4483 -122.3097 180° South 124 143 800  Level Seattle Center
Fri 08:40:10 PM 47.4594 -122.3100 359° North 125 144 1,400 1,600 Climbing Seattle Center
Fri 08:40:36 PM 47.4747 -122.3122 354° North 123 142 2,000 1,600 Climbing Seattle Center
Fri 08:41:10 PM 47.4919 -122.3414 311° West 181 208 3,000 1,869 Climbing Seattle Center
Fri 08:41:37 PM 47.4886 -122.3739 261° West 180 207 3,900 1,568 Climbing Seattle Center
Fri 08:42:38 PM 47.4619 -122.4308 235° Southwest 198 228 5,300 1,377 Climbing Seattle Center
Fri 08:43:39 PM 47.4050 -122.4217 174° South 207 238 6,700 1,426 Climbing Seattle Center
Fri 08:44:40 PM 47.3411 -122.4122 174° South 215 247 8,200 1,475 Climbing Seattle Center
Fri 08:45:00 PM 47.1011 -122.3667 180° South  Level Estimated
Fri 08:45:41 PM 47.2808 -122.3972 170° South 220 253 9,700  Level Seattle Center
Fri 08:46:42 PM 47.2214 -122.3792 168° South 218 251 10,700 984 Climbing Seattle Center
Fri 08:47:43 PM 47.1578 -122.3628 170° South 233 268 11,700 984 Climbing Seattle Center
Fri 08:48:44 PM 47.0869 -122.3450 170° South 240 276 12,700 885 Climbing Seattle Center
Fri 08:49:45 PM 47.0219 -122.3272 169° South 238 274 13,500 787 Climbing Seattle Center
Fri 08:50:46 PM 46.9536 -122.3103 170° South 249 287 14,300 738 Climbing Seattle Center
Fri 08:51:47 PM 46.8825 -122.3042 177° South 260 299 15,000 341 Climbing Seattle Center
Fri 08:52:49 PM 46.8014 -122.3111 183° South 273 314 15,000  Level Seattle Center
Fri 08:53:50 PM 46.7336 -122.3119 180° South 278 320 15,000  Level Seattle Center
Fri 08:54:51 PM 46.6558 -122.3094 179° South 283 326 15,000  Level Seattle Center
Fri 08:55:52 PM 46.5769 -122.3103 180° South 289 333 15,000  Level Seattle Center
Fri 08:56:53 PM 46.4836 -122.3122 181° South 284 327 15,000 -49 Level Seattle Center
Fri 08:57:54 PM 46.4069 -122.3103 179° South 280 322 14,900 -295 Descending Seattle Center
Fri 08:58:55 PM 46.3283 -122.3108 180° South 284 327 14,400 -900 Descending Seattle Center
Fri 08:59:34 PM 46.2697 -122.3147 183° South 300 345 13,400 -1,574 Descending Seattle Center
Fri 08:59:56 PM 46.2444 -122.3153 181° South 301 346 12,800 -1,900 Descending Seattle Center
Fri 09:00:34 PM 46.1883 -122.3519 204° Southwest 312 359 11,500 -1,869 Descending Seattle Center
Fri 09:00:57 PM 46.1672 -122.3614 197° South 305 351 10,900 -1,574 Descending Seattle Center
Fri 09:01:35 PM 46.1106 -122.3969 204° Southwest 305 351 9,900 -1,082 Descending Seattle Center
Fri 09:01:58 PM 46.0919 -122.4092 204° Southwest 298 343 9,800 -197 Descending Seattle Center
Fri 09:02:36 PM 46.0314 -122.4331 195° South 276 318 9,700 -393 Descending Seattle Center
Fri 09:02:59 PM 46.0189 -122.4408 203° Southwest 281 323 9,400 -1,180 Descending Seattle Center
Fri 09:03:37 PM 45.9519 -122.4381 178° South 290 334 8,500 -1,082 Descending Seattle Center
Fri 09:04:00 PM 45.9347 -122.4375 179° South 302 348 8,300 -1,000 Descending Seattle Center
Fri 09:04:37 PM 45.8722 -122.4400 182° South 286 329 7,500 -984 Descending Seattle Center
Fri 09:05:01 PM 45.8569 -122.4392 178° South 284 327 7,300 -918 Descending Seattle Center
Fri 09:06:02 PM 45.7664 -122.4436 182° South 274 315 6,200 -980 Descending Seattle Center
Fri 09:06:39 PM 45.7206 -122.4408 178° South 262 302 5,700 -885 Descending Seattle Center
Fri 09:07:03 PM 45.6944 -122.4436 184° South 264 304 5,300 -689 Descending Seattle Center
Fri 09:07:40 PM 45.6519 -122.4444 181° South 242 278 5,000 -689 Descending Seattle Center
Fri 09:08:04 PM 45.6281 -122.4425 177° South 248 285 4,600 -984 Descending Seattle Center
Fri 09:08:41 PM 45.5908 -122.4325 169° South 223 257 4,000 -1,377 Descending Seattle Center
Fri 09:09:05 PM 45.5692 -122.4278 171° South 225 259 3,200 -2,000 Descending Seattle Center

Login

Don't have an account? Register now (free) for customized features, flight alerts, and more!